Time;durP1;ratioP1;P1;durP2;ratioP2;P2;SDS_P1;SDS_P2;PMS_P1;PMS_P2;Temp;Humidity;BMP_temperature;BMP_pressure;BME280_temperature;BME280_humidity;BME280_pressure;Samples;Min_cycle;Max_cycle;Signal;HPM_P1;HPM_P2
2021/04/11 00:01:34;;;;;;;44.47;26.48;;;8.50;91.10;;;;;;3584046;40;20087;-63
2021/04/11 00:03:59;;;;;;;41.15;26.08;;;8.60;90.90;;;;;;3583998;40;20110;-63
2021/04/11 00:06:25;;;;;;;41.83;25.98;;;8.60;91.10;;;;;;3583114;39;20036;-63
2021/04/11 00:08:51;;;;;;;43.70;28.00;;;8.70;91.00;;;;;;3582963;40;20114;-63
2021/04/11 00:11:17;;;;;;;43.10;26.05;;;8.70;90.80;;;;;;3586393;40;20048;-63
2021/04/11 00:13:43;;;;;;;46.97;27.85;;;8.70;90.50;;;;;;3584329;40;20031;-63
2021/04/11 00:16:09;;;;;;;45.00;26.92;;;8.60;90.80;;;;;;3582880;40;20044;-62
2021/04/11 00:18:35;;;;;;;48.08;28.27;;;8.50;91.20;;;;;;3582906;39;20033;-63
2021/04/11 00:21:05;;;;;;;45.50;27.05;;;8.50;91.10;;;;;;3584324;40;20032;-64
2021/04/11 00:23:31;;;;;;;48.72;29.17;;;8.50;91.10;;;;;;3582910;40;20032;-63
2021/04/11 00:25:57;;;;;;;51.28;28.23;;;8.50;91.10;;;;;;3584497;40;20042;-63
2021/04/11 00:28:23;;;;;;;46.03;28.30;;;8.50;91.00;;;;;;3582472;39;20427;-63
2021/04/11 00:30:49;;;;;;;45.35;29.02;;;8.40;91.40;;;;;;3583854;40;20036;-64
2021/04/11 00:33:31;;;;;;;44.72;28.75;;;8.30;91.50;;;;;;3583141;39;20122;-63
2021/04/11 00:35:59;;;;;;;42.78;27.73;;;8.40;91.50;;;;;;3582326;40;20051;-63
2021/04/11 00:38:26;;;;;;;44.78;28.38;;;8.50;91.40;;;;;;3581935;40;20028;-64
2021/04/11 00:40:56;;;;;;;44.10;29.02;;;8.50;91.20;;;;;;3581069;40;20037;-63
2021/04/11 00:43:22;;;;;;;44.92;28.65;;;8.60;91.00;;;;;;3582253;40;20080;-63
2021/04/11 00:46:11;;;;;;;44.13;29.42;;;8.70;90.90;;;;;;3581853;40;20044;-63
2021/04/11 00:48:37;;;;;;;50.38;29.40;;;8.70;90.70;;;;;;3581553;40;20036;-63
2021/04/11 00:51:14;;;;;;;47.15;30.17;;;8.70;90.60;;;;;;3582598;39;20021;-63
2021/04/11 00:53:40;;;;;;;47.90;29.20;;;8.70;90.70;;;;;;3582962;40;20087;-63
2021/04/11 00:56:07;;;;;;;47.85;28.65;;;8.60;90.90;;;;;;3581643;39;20048;-69
2021/04/11 00:58:33;;;;;;;44.83;28.65;;;8.50;91.10;;;;;;3582723;40;20064;-69
2021/04/11 01:01:00;;;;;;;47.45;29.05;;;8.50;91.20;;;;;;3584903;40;20052;-69
2021/04/11 01:03:30;;;;;;;47.83;29.33;;;8.40;91.40;;;;;;3582763;40;20036;-69
2021/04/11 01:05:58;;;;;;;45.33;28.88;;;8.30;92.20;;;;;;3582668;39;20083;-69
2021/04/11 01:08:28;;;;;;;52.33;30.48;;;8.40;91.70;;;;;;3581518;40;20036;-69
2021/04/11 01:11:07;;;;;;;55.88;30.73;;;8.40;91.70;;;;;;3580069;40;20424;-69
2021/04/11 01:13:35;;;;;;;49.38;30.77;;;8.40;91.60;;;;;;3580091;39;20922;-69
2021/04/11 01:16:02;;;;;;;51.88;30.70;;;8.30;92.00;;;;;;3578765;40;20762;-69
2021/04/11 01:18:28;;;;;;;52.67;32.22;;;8.40;91.80;;;;;;3581379;39;20389;-69
2021/04/11 01:20:56;;;;;;;49.97;30.35;;;8.40;91.70;;;;;;3579581;40;20839;-69
2021/04/11 01:23:34;;;;;;;55.30;33.38;;;8.20;92.20;;;;;;3582901;40;20040;-69
2021/04/11 01:26:00;;;;;;;53.60;32.28;;;8.10;92.60;;;;;;3579850;40;20036;-69
2021/04/11 01:28:40;;;;;;;53.45;31.98;;;8.20;92.60;;;;;;3581249;40;20047;-69
2021/04/11 01:31:07;;;;;;;55.15;33.88;;;8.30;92.40;;;;;;3581775;40;20033;-69
2021/04/11 01:33:38;;;;;;;52.38;32.63;;;8.30;92.40;;;;;;3582379;39;20029;-69
2021/04/11 01:36:09;;;;;;;53.45;32.17;;;8.40;92.10;;;;;;3582974;40;20064;-69
2021/04/11 01:38:38;;;;;;;53.83;32.92;;;8.30;92.10;;;;;;3581327;40;20025;-69
2021/04/11 01:41:16;;;;;;;53.85;34.05;;;8.30;92.40;;;;;;3580445;39;20028;-69
2021/04/11 01:43:43;;;;;;;54.90;34.40;;;8.30;92.30;;;;;;3582236;40;20025;-69
2021/04/11 01:46:10;;;;;;;59.58;34.50;;;8.30;92.30;;;;;;3580037;40;20137;-69
2021/04/11 01:48:37;;;;;;;56.22;33.25;;;8.20;92.40;;;;;;3578887;40;20029;-69
2021/04/11 01:51:07;;;;;;;54.45;33.00;;;8.10;92.70;;;;;;3582352;40;20092;-69
2021/04/11 01:53:35;;;;;;;58.78;36.25;;;8.10;93.10;;;;;;3579564;40;20141;-69
2021/04/11 01:56:01;;;;;;;56.03;33.22;;;8.20;92.80;;;;;;3582585;39;20704;-69
2021/04/11 01:58:27;;;;;;;53.42;33.45;;;8.30;92.70;;;;;;3581880;39;20068;-69
2021/04/11 02:01:19;;;;;;;54.28;34.05;;;8.20;92.60;;;;;;3579527;40;20040;-69
2021/04/11 02:03:50;;;;;;;52.67;34.38;;;8.30;92.50;;;;;;3581735;40;20049;-69
2021/04/11 02:06:17;;;;;;;59.15;34.08;;;8.30;92.20;;;;;;3584813;39;20461;-69
2021/04/11 02:08:52;;;;;;;59.50;35.03;;;8.30;92.30;;;;;;3579662;40;20072;-69
2021/04/11 02:11:19;;;;;;;60.83;37.10;;;8.30;92.40;;;;;;3572378;40;20096;-69
2021/04/11 02:13:45;;;;;;;59.10;35.55;;;8.30;92.40;;;;;;3581678;39;20032;-69
2021/04/11 02:16:23;;;;;;;59.47;36.10;;;8.30;92.30;;;;;;3578859;40;20044;-69
2021/04/11 02:18:49;;;;;;;58.85;35.70;;;8.40;92.40;;;;;;3583994;39;20052;-69
2021/04/11 02:21:19;;;;;;;63.33;37.45;;;8.30;92.40;;;;;;3578671;40;20051;-69
2021/04/11 02:23:46;;;;;;;59.53;35.72;;;8.50;92.20;;;;;;3582348;40;20379;-69
2021/04/11 02:26:15;;;;;;;60.85;35.10;;;8.20;92.50;;;;;;3585012;39;20056;-69
2021/04/11 02:28:45;;;;;;;61.10;36.20;;;8.20;93.00;;;;;;3579105;40;20045;-69
2021/04/11 02:31:18;;;;;;;56.47;35.17;;;8.00;93.20;;;;;;3578452;40;20039;-69
2021/04/11 02:34:29;;;;;;;63.50;35.63;;;8.10;93.10;;;;;;3578887;40;20040;-69
2021/04/11 02:37:09;;;;;;;56.95;35.30;;;8.20;92.70;;;;;;3580932;40;20746;-69
2021/04/11 02:39:41;;;;;;;59.58;35.40;;;8.10;93.00;;;;;;3580545;39;20048;-69
2021/04/11 02:42:21;;;;;;;57.17;35.22;;;8.10;93.20;;;;;;3578985;40;20064;-69
2021/04/11 02:44:49;;;;;;;62.38;35.42;;;8.00;93.30;;;;;;3580552;40;20090;-68
2021/04/11 02:47:20;;;;;;;59.78;36.53;;;8.00;93.50;;;;;;3580544;40;20789;-69
2021/04/11 02:49:52;;;;;;;60.47;37.03;;;7.90;93.40;;;;;;3581113;40;20044;-68
2021/04/11 02:52:30;;;;;;;58.67;35.95;;;8.00;93.60;;;;;;3578950;40;20402;-68
2021/04/11 02:54:59;;;;;;;65.93;35.65;;;7.90;93.50;;;;;;3580250;40;20741;-69
2021/04/11 02:57:26;;;;;;;63.08;36.90;;;8.10;93.40;;;;;;3581425;39;20061;-69
2021/04/11 02:59:55;;;;;;;60.95;37.35;;;8.00;93.30;;;;;;3580578;40;20040;-69
2021/04/11 03:02:24;;;;;;;62.17;36.97;;;8.10;93.20;;;;;;3579466;40;20051;-68
2021/04/11 03:05:00;;;;;;;66.05;37.17;;;8.20;92.80;;;;;;3579143;40;20044;-68
2021/04/11 03:07:33;;;;;;;62.13;37.85;;;8.30;92.50;;;;;;3581448;40;20114;-69
2021/04/11 03:10:17;;;;;;;64.72;37.95;;;8.50;92.20;;;;;;3579468;40;20983;-67
2021/04/11 03:12:48;;;;;;;68.45;37.97;;;8.50;92.00;;;;;;3579622;40;20301;-68
2021/04/11 03:15:14;;;;;;;69.93;37.65;;;8.60;91.80;;;;;;3580103;40;20671;-69
2021/04/11 03:17:42;;;;;;;63.70;36.85;;;8.60;91.70;;;;;;3579315;40;20037;-67
2021/04/11 03:20:13;;;;;;;67.38;37.60;;;8.50;92.00;;;;;;3579942;40;20043;-69
2021/04/11 03:22:43;;;;;;;59.47;36.45;;;8.30;92.30;;;;;;3579288;39;20126;-69
2021/04/11 03:25:14;;;;;;;62.83;38.05;;;8.30;92.60;;;;;;3581411;40;20059;-68
2021/04/11 03:28:01;;;;;;;67.68;38.05;;;8.20;92.60;;;;;;3580346;40;20064;-68
2021/04/11 03:31:03;;;;;;;70.07;37.90;;;8.10;93.00;;;;;;3580346;40;20037;-68
2021/04/11 03:33:35;;;;;;;67.22;39.38;;;8.10;93.00;;;;;;3583628;39;20092;-68
2021/04/11 03:36:02;;;;;;;68.10;39.05;;;8.30;92.70;;;;;;3582276;39;20741;-68
2021/04/11 03:38:31;;;;;;;68.18;41.15;;;8.30;92.70;;;;;;3582918;39;20148;-69
2021/04/11 03:40:58;;;;;;;63.80;38.50;;;8.10;92.90;;;;;;3578642;39;20598;-68
2021/04/11 03:43:43;;;;;;;63.72;37.65;;;8.10;93.20;;;;;;3579289;40;20036;-69
2021/04/11 03:46:18;;;;;;;65.15;39.35;;;8.20;93.10;;;;;;3581706;40;20606;-68
2021/04/11 03:49:00;;;;;;;72.20;40.47;;;8.20;93.00;;;;;;3582376;40;20044;-68
2021/04/11 03:51:29;;;;;;;67.57;38.85;;;8.20;92.80;;;;;;3586678;39;20302;-68
2021/04/11 03:54:16;;;;;;;68.90;40.38;;;8.30;92.70;;;;;;3583651;40;20121;-69
2021/04/11 03:57:07;;;;;;;70.15;39.80;;;8.20;92.80;;;;;;3582816;39;20040;-68
2021/04/11 04:00:03;;;;;;;67.80;38.42;;;8.30;92.70;;;;;;3585413;40;20045;-68
2021/04/11 04:02:43;;;;;;;71.68;40.45;;;8.30;92.70;;;;;;3584281;40;20056;-68
2021/04/11 04:05:16;;;;;;;69.18;40.80;;;8.30;92.60;;;;;;3583258;40;20038;-68
2021/04/11 04:07:56;;;;;;;72.30;41.65;;;8.30;92.70;;;;;;3581740;40;20137;-69
2021/04/11 04:10:40;;;;;;;67.95;40.63;;;8.30;92.80;;;;;;3584150;40;20039;-68
2021/04/11 04:13:42;;;;;;;72.43;42.15;;;8.30;92.80;;;;;;3586172;40;20029;-68
2021/04/11 04:16:35;;;;;;;80.00;41.83;;;8.30;93.00;;;;;;3582706;40;20040;-69
2021/04/11 04:19:12;;;;;;;77.30;42.38;;;8.30;92.90;;;;;;3583192;40;20504;-69
2021/04/11 04:21:50;;;;;;;73.28;40.88;;;8.40;92.60;;;;;;3585539;39;20044;-68
2021/04/11 04:24:25;;;;;;;77.53;41.75;;;8.40;92.70;;;;;;3582217;40;20057;-69
2021/04/11 04:27:00;;;;;;;69.80;40.88;;;8.40;92.50;;;;;;3583948;40;20077;-69
2021/04/11 04:29:42;;;;;;;70.65;41.35;;;8.50;92.50;;;;;;3580849;40;20041;-68
2021/04/11 04:32:32;;;;;;;76.80;41.63;;;8.50;92.30;;;;;;3580802;40;20133;-68
2021/04/11 04:35:32;;;;;;;68.97;40.10;;;8.50;92.30;;;;;;3583340;40;20120;-68
2021/04/11 04:38:16;;;;;;;72.15;40.92;;;8.60;92.10;;;;;;3585927;40;20032;-68
2021/04/11 04:40:46;;;;;;;71.47;39.65;;;8.50;92.30;;;;;;3584436;39;20425;-69
2021/04/11 04:43:23;;;;;;;69.20;38.83;;;8.50;92.30;;;;;;3580679;40;20039;-69
2021/04/11 04:46:22;;;;;;;67.72;38.88;;;8.40;92.40;;;;;;3581655;40;20058;-68
2021/04/11 04:49:13;;;;;;;66.60;38.60;;;8.40;92.50;;;;;;3582088;40;20112;-68
2021/04/11 04:51:51;;;;;;;72.07;40.58;;;8.40;92.60;;;;;;3581233;40;20036;-69
2021/04/11 04:54:27;;;;;;;71.45;38.78;;;8.50;92.50;;;;;;3582919;39;20044;-67
2021/04/11 04:57:09;;;;;;;67.22;39.78;;;8.50;92.30;;;;;;3583260;40;20795;-69
2021/04/11 04:59:51;;;;;;;70.82;39.80;;;8.30;92.50;;;;;;3582321;40;20036;-68
2021/04/11 05:02:24;;;;;;;66.15;38.72;;;8.30;92.50;;;;;;3580513;40;20117;-69
2021/04/11 05:05:07;;;;;;;70.35;40.67;;;8.30;92.70;;;;;;3580834;39;20036;-69
2021/04/11 05:07:51;;;;;;;71.95;39.75;;;8.40;92.30;;;;;;3582517;39;20099;-70
2021/04/11 05:10:24;;;;;;;70.07;39.88;;;8.50;92.20;;;;;;3583162;40;20739;-68
2021/04/11 05:13:06;;;;;;;64.45;37.40;;;8.30;92.20;;;;;;3582418;40;20127;-69
2021/04/11 05:15:40;;;;;;;64.35;38.70;;;8.40;92.40;;;;;;3581166;40;20036;-68
2021/04/11 05:18:27;;;;;;;69.05;38.25;;;8.50;92.30;;;;;;3584713;39;20055;-69
2021/04/11 05:21:17;;;;;;;68.20;39.35;;;8.40;92.30;;;;;;3585020;39;20188;-68
2021/04/11 05:23:51;;;;;;;64.68;38.13;;;8.40;92.60;;;;;;3583539;39;20048;-73
2021/04/11 05:26:30;;;;;;;68.15;37.78;;;8.30;92.80;;;;;;3581220;40;20113;-69
2021/04/11 05:29:15;;;;;;;69.20;38.45;;;8.40;92.60;;;;;;3584744;40;20033;-69
2021/04/11 05:31:42;;;;;;;68.93;37.25;;;8.40;92.60;;;;;;3581454;40;20110;-69
2021/04/11 05:34:11;;;;;;;66.65;38.83;;;8.40;92.30;;;;;;3583810;39;20452;-68
2021/04/11 05:36:44;;;;;;;63.70;37.63;;;8.30;93.00;;;;;;3581533;40;20029;-67
2021/04/11 05:39:23;;;;;;;64.97;37.85;;;8.30;93.10;;;;;;3579446;40;20036;-67
2021/04/11 05:42:05;;;;;;;62.88;37.10;;;8.40;92.80;;;;;;3581344;39;20828;-68
2021/04/11 05:44:46;;;;;;;65.85;37.95;;;8.40;92.70;;;;;;3582826;40;20028;-68
2021/04/11 05:47:15;;;;;;;66.82;38.78;;;8.30;93.00;;;;;;3582653;40;20033;-69
2021/04/11 05:49:57;;;;;;;67.00;39.20;;;8.10;93.40;;;;;;3582047;39;20140;-68
2021/04/11 05:52:33;;;;;;;71.68;39.25;;;8.10;93.70;;;;;;3581202;40;20044;-68
2021/04/11 05:55:02;;;;;;;68.43;39.33;;;8.10;93.50;;;;;;3581528;40;20060;-66
2021/04/11 05:57:38;;;;;;;62.30;38.47;;;8.10;93.60;;;;;;3582904;39;20033;-68
2021/04/11 06:00:03;;;;;;;75.57;41.53;;;8.30;93.50;;;;;;3581785;40;20059;-67
2021/04/11 06:02:44;;;;;;;74.00;40.78;;;8.40;93.20;;;;;;3581982;39;20043;-67
2021/04/11 06:05:26;;;;;;;71.70;40.72;;;8.40;93.00;;;;;;3581879;40;20652;-67
2021/04/11 06:07:59;;;;;;;69.32;40.15;;;8.60;93.00;;;;;;3581219;40;20048;-68
2021/04/11 06:10:33;;;;;;;75.45;40.00;;;8.60;92.80;;;;;;3582938;40;20044;-67
2021/04/11 06:13:18;;;;;;;67.18;39.47;;;8.50;93.00;;;;;;3581596;39;20118;-68
2021/04/11 06:15:54;;;;;;;67.30;38.58;;;8.60;93.30;;;;;;3582329;40;20078;-68
2021/04/11 06:18:20;;;;;;;67.70;39.42;;;9.10;92.80;;;;;;3582328;40;20058;-69
2021/04/11 06:20:47;;;;;;;59.50;36.03;;;9.70;91.90;;;;;;3582540;40;20024;-69
2021/04/11 06:23:38;;;;;;;55.03;34.47;;;10.30;90.30;;;;;;3580724;40;20392;-69
2021/04/11 06:26:46;;;;;;;58.65;34.50;;;10.40;87.10;;;;;;3584504;39;20066;-69
2021/04/11 06:29:20;;;;;;;;;;;10.30;86.80;;;;;;3574146;40;20029;-69
2021/04/11 06:31:52;;;;;;;53.80;32.25;;;10.20;87.50;;;;;;3571358;40;19939;-67
2021/04/11 06:34:26;;;;;;;53.80;33.60;;;10.10;88.50;;;;;;3579607;40;20448;-69
2021/04/11 06:36:55;;;;;;;59.33;34.28;;;9.90;88.40;;;;;;3581682;40;20040;-68
2021/04/11 06:39:25;;;;;;;55.95;33.55;;;9.90;88.90;;;;;;3582060;39;20029;-67
2021/04/11 06:42:12;;;;;;;59.45;35.17;;;10.00;88.80;;;;;;3582447;39;20044;-67
2021/04/11 06:44:56;;;;;;;54.72;34.15;;;10.20;88.30;;;;;;3581318;40;20040;-67
2021/04/11 06:48:00;;;;;;;52.95;33.67;;;10.50;87.90;;;;;;3582857;40;20413;-67
2021/04/11 06:50:38;;;;;;;51.72;31.73;;;11.10;85.00;;;;;;3580435;40;20140;-68
2021/04/11 06:53:34;;;;;;;51.92;31.92;;;11.40;83.40;;;;;;3581579;40;20372;-68
2021/04/11 06:56:37;;;;;;;48.83;30.00;;;11.60;80.80;;;;;;3581230;40;20770;-67
2021/04/11 06:59:11;;;;;;;47.53;31.02;;;12.10;81.50;;;;;;3579635;40;20036;-68
2021/04/11 07:02:12;;;;;;;45.30;28.67;;;12.60;78.70;;;;;;3583079;40;20074;-67
2021/04/11 07:04:58;;;;;;;46.00;29.77;;;12.60;78.60;;;;;;3582581;40;20098;-67
2021/04/11 07:07:45;;;;;;;48.25;30.30;;;12.70;80.00;;;;;;3580433;40;20040;-67
2021/04/11 07:10:30;;;;;;;45.67;29.55;;;12.90;76.70;;;;;;3578096;40;20040;-67
2021/04/11 07:13:20;;;;;;;47.88;30.05;;;13.10;76.20;;;;;;3580437;40;20028;-68
2021/04/11 07:16:23;;;;;;;45.58;28.23;;;13.50;75.40;;;;;;3582568;39;20494;-69
2021/04/11 07:19:07;;;;;;;43.50;27.00;;;14.20;73.00;;;;;;3583254;40;20088;-68
2021/04/11 07:21:54;;;;;;;39.85;26.65;;;14.50;71.50;;;;;;3582182;39;20427;-68
2021/04/11 07:24:46;;;;;;;41.80;25.48;;;15.10;67.50;;;;;;3585225;40;20514;-69
2021/04/11 07:27:41;;;;;;;38.10;24.80;;;15.70;66.90;;;;;;3581948;40;20161;-69
2021/04/11 07:30:15;;;;;;;36.38;25.63;;;16.00;64.40;;;;;;3584033;40;20028;-68
2021/04/11 07:33:15;;;;;;;36.45;24.88;;;16.00;64.80;;;;;;3585451;40;20033;-68
2021/04/11 07:36:18;;;;;;;38.47;24.98;;;15.90;64.40;;;;;;3582926;40;20388;-69
2021/04/11 07:38:50;;;;;;;36.60;23.90;;;16.00;64.20;;;;;;3584574;40;20556;-68
2021/04/11 07:41:43;;;;;;;36.70;24.77;;;16.10;64.80;;;;;;3582956;40;20039;-67
2021/04/11 07:44:26;;;;;;;34.95;24.45;;;16.40;63.10;;;;;;3584382;40;20350;-67
2021/04/11 07:46:58;;;;;;;36.03;24.90;;;16.60;64.60;;;;;;3583810;40;20562;-67
2021/04/11 07:49:35;;;;;;;43.33;25.00;;;16.60;62.50;;;;;;3583756;40;20070;-67
2021/04/11 07:52:20;;;;;;;50.75;31.77;;;16.40;62.30;;;;;;3582078;39;20039;-66
2021/04/11 07:55:18;;;;;;;35.25;24.23;;;16.10;65.00;;;;;;3583500;40;20133;-66
2021/04/11 07:58:13;;;;;;;32.70;23.02;;;15.90;63.10;;;;;;3583567;39;20620;-68
2021/04/11 08:00:44;;;;;;;35.15;24.38;;;15.50;65.70;;;;;;3584509;40;20613;-68
2021/04/11 08:03:32;;;;;;;37.55;24.42;;;15.10;65.50;;;;;;3583017;39;20033;-68
2021/04/11 08:06:14;;;;;;;36.25;23.70;;;14.90;68.40;;;;;;3583179;40;20040;-67
2021/04/11 08:09:20;;;;;;;34.05;23.58;;;14.80;66.70;;;;;;3580179;39;20040;-68
2021/04/11 08:12:17;;;;;;;35.88;23.77;;;14.80;67.90;;;;;;3580312;40;20039;-68
2021/04/11 08:15:07;;;;;;;39.23;24.53;;;14.70;68.20;;;;;;3585474;39;20028;-67
2021/04/11 08:17:45;;;;;;;35.85;23.92;;;14.60;67.90;;;;;;3585281;40;20522;-68
2021/04/11 08:20:53;;;;;;;35.85;23.70;;;14.50;70.10;;;;;;3583106;40;20036;-69
2021/04/11 08:23:27;;;;;;;34.65;23.40;;;14.50;70.30;;;;;;3580644;39;20040;-69
2021/04/11 08:26:15;;;;;;;35.67;23.90;;;14.40;69.90;;;;;;3583326;39;20813;-69
2021/04/11 08:28:56;;;;;;;35.08;23.10;;;14.20;71.00;;;;;;3584783;39;20056;-69
2021/04/11 08:31:45;;;;;;;33.63;22.52;;;14.30;70.80;;;;;;3582963;39;20117;-69
2021/04/11 08:34:29;;;;;;;33.83;22.48;;;14.10;72.40;;;;;;3583388;40;20033;-68
2021/04/11 08:37:07;;;;;;;37.92;23.17;;;14.20;71.60;;;;;;3584377;40;20051;-68
2021/04/11 08:40:02;;;;;;;35.10;23.00;;;14.50;72.30;;;;;;3583327;40;20778;-68
2021/04/11 08:42:49;;;;;;;34.22;22.23;;;14.70;69.70;;;;;;3581909;40;20040;-69
2021/04/11 08:45:42;;;;;;;37.35;22.23;;;14.80;71.00;;;;;;3587040;39;20028;-68
2021/04/11 08:48:21;;;;;;;34.35;22.63;;;14.80;69.30;;;;;;3585439;40;20032;-68
2021/04/11 08:51:07;;;;;;;33.55;21.75;;;15.00;69.70;;;;;;3581281;40;20028;-68
2021/04/11 08:53:38;;;;;;;30.40;20.35;;;15.30;69.50;;;;;;3582627;40;20121;-69
2021/04/11 08:56:06;;;;;;;30.15;20.58;;;15.80;68.60;;;;;;3584056;40;20072;-70
2021/04/11 08:58:59;;;;;;;27.98;18.25;;;16.70;66.20;;;;;;3583824;39;20087;-68
2021/04/11 09:01:32;;;;;;;27.80;18.10;;;17.60;64.10;;;;;;3583198;40;20028;-68
2021/04/11 09:04:18;;;;;;;26.65;17.27;;;18.40;58.90;;;;;;3583805;39;20036;-72
2021/04/11 09:07:06;;;;;;;23.13;15.93;;;18.90;57.50;;;;;;3582474;40;20123;-69
2021/04/11 09:09:55;;;;;;;26.27;16.15;;;19.30;57.80;;;;;;3583809;40;20124;-69
2021/04/11 09:12:58;;;;;;;20.98;14.02;;;19.70;56.30;;;;;;3583259;40;20025;-69
2021/04/11 09:15:45;;;;;;;20.73;13.60;;;20.10;56.20;;;;;;3583439;40;20395;-67
2021/04/11 09:18:29;;;;;;;20.98;13.65;;;20.80;53.20;;;;;;3583281;40;20052;-67
2021/04/11 09:21:13;;;;;;;20.42;13.00;;;21.00;51.80;;;;;;3581609;39;20032;-68
2021/04/11 09:23:53;;;;;;;18.27;13.60;;;20.70;52.70;;;;;;3582866;40;20021;-68
2021/04/11 09:26:29;;;;;;;22.75;13.48;;;20.30;51.60;;;;;;3581567;39;20129;-67
2021/04/11 09:28:58;;;;;;;19.35;12.95;;;19.60;52.60;;;;;;3582368;40;20935;-68
2021/04/11 09:31:36;;;;;;;18.65;12.65;;;19.20;54.80;;;;;;3583763;40;20320;-68
2021/04/11 09:34:09;;;;;;;17.35;12.75;;;18.90;56.30;;;;;;3582430;40;20094;-68
2021/04/11 09:36:57;;;;;;;19.42;13.38;;;18.60;56.00;;;;;;3584461;39;20036;-69
2021/04/11 09:40:01;;;;;;;21.10;12.05;;;18.50;56.90;;;;;;3581754;40;20037;-68
2021/04/11 09:42:36;;;;;;;19.17;12.30;;;18.60;56.70;;;;;;3581764;40;20056;-70
2021/04/11 09:45:31;;;;;;;16.80;11.90;;;18.70;56.00;;;;;;3584104;40;20072;-68
2021/04/11 09:48:33;;;;;;;14.60;11.00;;;18.80;56.70;;;;;;3579034;40;20044;-69
2021/04/11 09:51:18;;;;;;;16.35;11.10;;;18.80;58.20;;;;;;3582741;40;20027;-68
2021/04/11 09:54:05;;;;;;;19.23;11.63;;;18.80;57.80;;;;;;3582131;40;20033;-68
2021/04/11 09:57:00;;;;;;;16.88;10.98;;;18.90;58.30;;;;;;3581851;39;20793;-69
2021/04/11 09:59:32;;;;;;;15.18;10.18;;;19.10;57.90;;;;;;3582670;40;20125;-69
2021/04/11 10:02:18;;;;;;;12.18;10.05;;;19.20;57.10;;;;;;3581507;39;20049;-68
2021/04/11 10:04:53;;;;;;;15.52;9.60;;;19.30;56.30;;;;;;3582378;40;20074;-68
2021/04/11 10:07:42;;;;;;;15.88;10.32;;;19.70;56.60;;;;;;3582455;40;20045;-69
2021/04/11 10:10:41;;;;;;;14.43;10.43;;;20.40;53.80;;;;;;3580430;40;20036;-68
2021/04/11 10:13:25;;;;;;;13.13;9.23;;;21.10;52.60;;;;;;3582024;40;20032;-69
2021/04/11 10:16:10;;;;;;;13.43;8.85;;;21.00;53.10;;;;;;3580966;39;20878;-68
2021/04/11 10:19:08;;;;;;;12.82;9.25;;;20.80;51.40;;;;;;3582842;40;20176;-69
2021/04/11 10:21:54;;;;;;;10.23;7.15;;;20.70;52.60;;;;;;3579326;39;20040;-69
2021/04/11 10:24:26;;;;;;;12.98;9.00;;;20.90;51.70;;;;;;3583078;40;20097;-69
2021/04/11 10:27:06;;;;;;;14.30;8.50;;;20.90;52.60;;;;;;3580985;40;20435;-69
2021/04/11 10:29:34;;;;;;;13.40;8.10;;;20.70;52.20;;;;;;3583311;40;20079;-70
2021/04/11 10:32:12;;;;;;;13.25;8.45;;;20.40;53.00;;;;;;3582500;39;20032;-68
2021/04/11 10:34:48;;;;;;;13.43;8.60;;;20.10;51.10;;;;;;3582837;40;20021;-67
2021/04/11 10:37:32;;;;;;;;;;;19.90;51.60;;;;;;3583271;40;20039;-67
2021/04/11 10:40:11;;;;;;;16.95;7.88;;;19.80;54.10;;;;;;3581552;40;20649;-68
2021/04/11 10:43:15;;;;;;;11.52;7.28;;;19.70;54.00;;;;;;3581735;40;20025;-67
2021/04/11 10:46:05;;;;;;;10.20;6.50;;;19.60;52.60;;;;;;3582083;40;20508;-68
2021/04/11 10:48:55;;;;;;;8.63;6.47;;;19.60;52.40;;;;;;3584030;40;20133;-69
2021/04/11 10:51:42;;;;;;;10.25;7.65;;;19.50;52.90;;;;;;3582425;40;20056;-67
2021/04/11 10:54:13;;;;;;;12.18;7.40;;;19.50;53.20;;;;;;3585851;39;20040;-67
2021/04/11 10:57:00;;;;;;;10.43;6.00;;;19.60;54.40;;;;;;3584485;40;20036;-67
2021/04/11 10:59:46;;;;;;;12.00;6.53;;;19.50;52.80;;;;;;3583517;39;20036;-67
2021/04/11 11:02:49;;;;;;;7.43;5.95;;;19.60;51.60;;;;;;3581768;39;20047;-67
2021/04/11 11:05:39;;;;;;;8.43;5.50;;;19.60;51.60;;;;;;3586195;40;20032;-68
2021/04/11 11:08:11;;;;;;;8.68;5.38;;;19.70;50.90;;;;;;3583254;40;20031;-67
2021/04/11 11:11:07;;;;;;;10.55;5.78;;;19.80;51.90;;;;;;3582718;40;20100;-67
2021/04/11 11:14:00;;;;;;;8.20;5.97;;;20.00;50.10;;;;;;3586370;40;20286;-68
2021/04/11 11:16:59;;;;;;;8.05;5.80;;;20.00;50.20;;;;;;3582281;40;20048;-67
2021/04/11 11:19:46;;;;;;;9.48;5.32;;;19.80;50.10;;;;;;3581893;40;20528;-67
2021/04/11 11:22:38;;;;;;;9.65;6.47;;;19.80;52.80;;;;;;3585559;39;20751;-67
2021/04/11 11:25:12;;;;;;;11.98;6.72;;;20.00;52.40;;;;;;3584168;40;20104;-66
2021/04/11 11:28:04;;;;;;;9.23;5.47;;;20.00;50.90;;;;;;3583812;40;20028;-66
2021/04/11 11:31:07;;;;;;;6.22;4.20;;;20.20;51.00;;;;;;3583164;40;20029;-67
2021/04/11 11:33:51;;;;;;;9.50;5.03;;;20.20;50.60;;;;;;3584193;40;20036;-66
2021/04/11 11:36:40;;;;;;;7.88;5.00;;;20.20;49.90;;;;;;3587784;39;20036;-67
2021/04/11 11:39:23;;;;;;;8.82;5.18;;;20.20;49.80;;;;;;3587588;39;20332;-66
2021/04/11 11:42:12;;;;;;;11.20;5.15;;;20.30;50.30;;;;;;3583976;40;20751;-67
2021/04/11 11:44:55;;;;;;;7.97;5.15;;;20.30;49.70;;;;;;3582734;40;20527;-66
2021/04/11 11:47:27;;;;;;;9.35;5.43;;;20.30;50.10;;;;;;3585051;40;20035;-66
2021/04/11 11:50:16;;;;;;;8.82;5.50;;;20.40;49.70;;;;;;3585322;40;20041;-66
2021/04/11 11:53:02;;;;;;;8.55;4.32;;;20.50;49.60;;;;;;3584667;39;20036;-66
2021/04/11 11:55:32;;;;;;;7.85;3.97;;;20.50;49.50;;;;;;3582530;39;20125;-71
2021/04/11 11:58:16;;;;;;;7.53;3.33;;;20.50;48.50;;;;;;3583661;39;20035;-66
2021/04/11 12:00:55;;;;;;;6.32;3.53;;;20.50;47.70;;;;;;3584809;39;20025;-66
2021/04/11 12:03:30;;;;;;;5.30;3.88;;;20.50;48.20;;;;;;3582947;39;20043;-66
2021/04/11 12:06:27;;;;;;;6.13;4.57;;;20.50;49.60;;;;;;3581926;40;20031;-66
2021/04/11 12:09:28;;;;;;;6.55;3.40;;;20.50;47.50;;;;;;3582728;40;20309;-67
2021/04/11 12:12:12;;;;;;;5.97;3.08;;;20.50;47.50;;;;;;3583020;40;20071;-66
2021/04/11 12:15:03;;;;;;;4.15;2.20;;;20.50;45.60;;;;;;3582474;40;20032;-67
2021/04/11 12:18:04;;;;;;;5.18;3.33;;;20.40;46.70;;;;;;3582581;40;20062;-66
2021/04/11 12:20:44;;;;;;;5.00;2.88;;;20.30;47.40;;;;;;3581174;40;20041;-67
2021/04/11 12:23:27;;;;;;;6.70;3.72;;;20.30;46.20;;;;;;3586705;39;20074;-66
2021/04/11 12:26:14;;;;;;;9.93;6.00;;;20.40;47.90;;;;;;3583595;39;20139;-66
2021/04/11 12:28:42;;;;;;;7.15;5.13;;;20.60;47.30;;;;;;3584912;39;20879;-66
2021/04/11 12:31:16;;;;;;;5.45;4.65;;;20.80;47.80;;;;;;3583734;39;20038;-66
2021/04/11 12:33:53;;;;;;;5.93;4.47;;;20.90;46.60;;;;;;3584033;40;20028;-66
2021/04/11 12:36:42;;;;;;;10.90;3.17;;;20.90;46.10;;;;;;3583650;39;20029;-65
2021/04/11 12:39:23;;;;;;;6.72;3.30;;;20.90;45.20;;;;;;3575736;40;20035;-67
2021/04/11 12:42:20;;;;;;;4.28;3.15;;;21.10;44.10;;;;;;3584461;40;20078;-67
2021/04/11 12:45:03;;;;;;;7.03;5.15;;;21.10;45.70;;;;;;3581423;39;20129;-67
2021/04/11 12:48:10;;;;;;;4.45;3.60;;;20.80;46.20;;;;;;3582781;39;20032;-67
2021/04/11 12:50:46;;;;;;;11.52;8.50;;;20.70;46.70;;;;;;3582167;40;20538;-67
2021/04/11 12:53:27;;;;;;;5.32;3.20;;;20.60;49.20;;;;;;3584867;39;20032;-67
2021/04/11 12:55:58;;;;;;;5.35;3.35;;;20.50;46.30;;;;;;3583218;39;20481;-67
2021/04/11 12:58:34;;;;;;;6.38;3.90;;;20.60;47.80;;;;;;3584503;39;20025;-69
2021/04/11 13:01:21;;;;;;;23.08;17.23;;;20.70;48.90;;;;;;3584833;40;20031;-66
2021/04/11 13:03:53;;;;;;;7.32;4.13;;;20.80;48.60;;;;;;3583088;40;20064;-70
2021/04/11 13:06:44;;;;;;;8.05;5.55;;;20.70;48.30;;;;;;3583425;39;20536;-68
2021/04/11 13:09:28;;;;;;;8.88;6.10;;;20.60;48.40;;;;;;3583482;40;20028;-67
2021/04/11 13:12:31;;;;;;;6.10;4.10;;;20.50;48.10;;;;;;3580439;40;20028;-67
2021/04/11 13:15:21;;;;;;;4.43;3.92;;;20.30;49.10;;;;;;3581191;39;20100;-68
2021/04/11 13:18:05;;;;;;;4.93;3.80;;;20.30;49.50;;;;;;3586348;40;20103;-68
2021/04/11 13:20:38;;;;;;;10.23;3.65;;;20.30;50.40;;;;;;3580583;40;20080;-68
2021/04/11 13:23:28;;;;;;;19.98;16.70;;;20.50;50.20;;;;;;3584783;40;20408;-67
2021/04/11 13:26:09;;;;;;;8.15;5.45;;;20.70;49.70;;;;;;3584864;40;20437;-67
2021/04/11 13:28:54;;;;;;;13.98;6.97;;;20.70;49.20;;;;;;3586483;40;20064;-67
2021/04/11 13:31:34;;;;;;;5.97;4.72;;;20.80;48.40;;;;;;3586176;40;20043;-66
2021/04/11 13:34:06;;;;;;;8.77;3.83;;;20.80;48.60;;;;;;3584280;40;20148;-68
2021/04/11 13:36:51;;;;;;;5.05;3.58;;;20.80;48.30;;;;;;3586447;39;20051;-67
2021/04/11 13:39:32;;;;;;;6.45;3.42;;;20.80;47.90;;;;;;3586121;40;20645;-66
2021/04/11 13:42:03;;;;;;;7.65;3.47;;;20.80;48.50;;;;;;3585598;40;20032;-70